Time;durP1;ratioP1;P1;durP2;ratioP2;P2;SDS_P1;SDS_P2;PMS_P1;PMS_P2;Temp;Humidity;BMP_temperature;BMP_pressure;BME280_temperature;BME280_humidity;BME280_pressure;Samples;Min_cycle;Max_cycle;Signal;HPM_P1;HPM_P2
2020/12/08 00:02:06;;;;;;;13.87;9.53;;;;;;;1.48;100.00;151747.19;5000297;28;20850;-92
2020/12/08 00:04:42;;;;;;;17.60;11.40;;;;;;;1.44;100.00;151738.19;5017785;28;20427;-92
2020/12/08 00:07:18;;;;;;;14.33;9.77;;;;;;;1.46;100.00;151742.00;5018531;28;20925;-92
2020/12/08 00:09:53;;;;;;;15.03;10.77;;;;;;;1.48;100.00;151747.19;5009810;28;20424;-93
2020/12/08 00:12:28;;;;;;;14.90;9.40;;;;;;;1.53;100.00;151760.03;5001335;28;20508;-92
2020/12/08 00:15:06;;;;;;;16.57;10.10;;;;;;;1.52;100.00;151758.75;5018797;28;20438;-93
2020/12/08 00:17:41;;;;;;;16.53;9.80;;;;;;;1.44;100.00;151738.19;5017875;28;20477;-93
2020/12/08 00:20:17;;;;;;;15.30;10.57;;;;;;;1.56;100.00;151767.75;5000078;28;20880;-92
2020/12/08 00:22:54;;;;;;;19.10;10.90;;;;;;;1.52;100.00;151758.75;4999610;28;20431;-92
2020/12/08 00:25:29;;;;;;;17.70;11.33;;;;;;;1.54;100.00;151762.56;5017372;28;20438;-92
2020/12/08 00:28:04;;;;;;;17.60;10.60;;;;;;;1.68;100.00;151798.56;5017258;28;20431;-92
2020/12/08 00:30:40;;;;;;;17.57;11.17;;;;;;;1.56;100.00;151767.75;4986417;28;20795;-93
2020/12/08 00:33:15;;;;;;;16.77;10.90;;;;;;;1.51;100.00;151754.91;4982118;28;20434;-92
2020/12/08 00:35:50;;;;;;;16.97;11.30;;;;;;;1.48;100.00;151747.19;5004281;28;20478;-92
2020/12/08 00:38:27;;;;;;;18.27;10.90;;;;;;;1.46;100.00;151742.00;5017084;28;20412;-92
2020/12/08 00:41:03;;;;;;;21.60;12.90;;;;;;;1.57;100.00;151770.28;5002392;28;20445;-93
2020/12/08 00:43:38;;;;;;;18.80;12.13;;;;;;;1.58;100.00;151772.88;5009695;28;20442;-92
2020/12/08 00:46:13;;;;;;;15.53;10.87;;;;;;;1.58;100.00;151774.19;4999478;28;20434;-92
2020/12/08 00:48:49;;;;;;;18.90;11.60;;;;;;;1.55;100.00;151765.16;5000140;28;20521;-92
2020/12/08 00:51:24;;;;;;;18.33;11.00;;;;;;;1.66;100.00;151793.44;4984340;28;20447;-93
2020/12/08 00:54:02;;;;;;;16.67;10.30;;;;;;;1.72;100.00;151808.88;4985418;28;20836;-93
2020/12/08 00:56:40;;;;;;;17.60;10.80;;;;;;;1.67;100.00;151795.97;4979392;28;20575;-92
2020/12/08 00:59:15;;;;;;;17.63;11.40;;;;;;;1.62;100.00;151783.13;4998007;28;20447;-92
2020/12/08 01:02:00;;;;;;;18.83;11.70;;;;;;;1.59;100.00;151776.72;4984238;28;20795;-93
2020/12/08 01:04:37;;;;;;;18.67;11.23;;;;;;;1.60;100.00;151779.31;5006463;28;20480;-93
2020/12/08 01:07:13;;;;;;;16.47;10.80;;;;;;;1.70;100.00;151803.69;5004270;28;20451;-93
2020/12/08 01:09:50;;;;;;;17.37;10.50;;;;;;;1.68;100.00;151798.56;4983069;28;20845;-93
2020/12/08 01:12:25;;;;;;;15.83;11.90;;;;;;;1.72;100.00;151810.13;4983052;28;20461;-92
2020/12/08 01:15:00;;;;;;;17.70;11.90;;;;;;;1.64;100.00;151789.56;5008195;28;20440;-92
2020/12/08 01:17:40;;;;;;;19.40;11.90;;;;;;;1.58;100.00;151772.88;4999741;28;20472;-93
2020/12/08 01:20:16;;;;;;;19.73;12.20;;;;;;;1.55;100.00;151766.47;5000089;28;20806;-92
2020/12/08 01:22:55;;;;;;;19.43;11.90;;;;;;;1.67;100.00;151797.28;4983248;28;22478;-93
2020/12/08 01:25:33;;;;;;;20.80;13.50;;;;;;;1.58;100.00;151772.88;4983302;28;20434;-92
2020/12/08 01:28:09;;;;;;;21.30;13.03;;;;;;;1.55;100.00;151766.47;4986813;28;20494;-92
2020/12/08 01:30:45;;;;;;;20.00;12.67;;;;;;;1.64;100.00;151788.31;5013933;28;20938;-92
2020/12/08 01:33:21;;;;;;;19.60;12.60;;;;;;;1.65;100.00;151790.84;4982986;28;20474;-92
2020/12/08 01:35:57;;;;;;;22.20;13.60;;;;;;;1.59;100.00;151776.72;4999574;28;20577;-92
2020/12/08 01:38:32;;;;;;;24.23;13.33;;;;;;;1.51;100.00;151754.91;4979820;28;20522;-92
2020/12/08 01:41:10;;;;;;;19.20;11.93;;;;;;;1.59;100.00;151775.47;4990584;28;21029;-92
2020/12/08 01:43:46;;;;;;;17.50;12.43;;;;;;;1.53;100.00;151760.03;4984006;28;20449;-92
2020/12/08 01:46:25;;;;;;;19.47;13.37;;;;;;;1.54;100.00;151763.88;5012160;28;20449;-93
2020/12/08 01:49:01;;;;;;;19.43;12.07;;;;;;;1.47;100.00;151745.91;4980983;28;20446;-92
2020/12/08 01:51:38;;;;;;;20.67;11.33;;;;;;;1.45;100.00;151739.47;4999618;28;20443;-93
2020/12/08 01:54:15;;;;;;;15.90;12.00;;;;;;;1.44;100.00;151738.19;4976839;28;20447;-93
2020/12/08 01:56:55;;;;;;;20.80;11.83;;;;;;;1.44;100.00;151738.19;4997976;28;20483;-93
2020/12/08 01:59:30;;;;;;;16.40;11.23;;;;;;;1.40;100.00;151727.94;4990755;28;20439;-93
2020/12/08 02:02:28;;;;;;;19.83;12.97;;;;;;;1.35;100.00;151713.78;4980134;28;20445;-92
2020/12/08 02:05:06;;;;;;;21.80;12.77;;;;;;;1.36;100.00;151716.31;4982738;28;20474;-92
2020/12/08 02:07:43;;;;;;;19.53;12.43;;;;;;;1.30;100.00;151702.19;4998099;28;20447;-92
2020/12/08 02:10:19;;;;;;;20.30;11.97;;;;;;;1.33;100.00;151709.91;4970925;28;20455;-92
2020/12/08 02:12:56;;;;;;;20.57;12.07;;;;;;;1.35;100.00;151715.03;4981393;28;20455;-93
2020/12/08 02:15:35;;;;;;;21.03;12.63;;;;;;;1.39;100.00;151724.03;5008854;28;20452;-93
2020/12/08 02:18:12;;;;;;;17.90;11.30;;;;;;;1.33;100.00;151709.91;5005339;28;20439;-93
2020/12/08 02:20:54;;;;;;;18.10;12.50;;;;;;;1.32;100.00;151707.38;5011547;28;20456;-91
2020/12/08 02:23:30;;;;;;;24.07;12.13;;;;;;;1.30;100.00;151702.19;4995522;28;20452;-93
2020/12/08 02:26:06;;;;;;;20.03;13.00;;;;;;;1.30;100.00;151700.94;4971823;28;20440;-92
2020/12/08 02:28:43;;;;;;;18.00;12.80;;;;;;;1.27;100.00;151694.53;4963237;28;20468;-92
2020/12/08 02:31:21;;;;;;;23.90;13.57;;;;;;;1.30;100.00;151700.94;4963651;28;20468;-92
2020/12/08 02:33:57;;;;;;;18.87;12.57;;;;;;;1.27;100.00;151693.22;4981761;28;20527;-92
2020/12/08 02:36:33;;;;;;;25.53;14.73;;;;;;;1.21;100.00;151679.09;4982477;28;20485;-93
2020/12/08 02:39:09;;;;;;;21.03;12.90;;;;;;;1.26;100.00;151690.66;5013734;28;20445;-92
2020/12/08 02:41:46;;;;;;;22.50;14.17;;;;;;;1.23;100.00;151685.53;4982348;28;20542;-93
2020/12/08 02:44:22;;;;;;;24.93;15.77;;;;;;;1.32;100.00;151707.38;4989812;28;20438;-92
2020/12/08 02:46:57;;;;;;;23.60;13.43;;;;;;;1.27;100.00;151693.22;4977656;28;20471;-92
2020/12/08 02:49:34;;;;;;;23.10;13.73;;;;;;;1.27;100.00;151694.53;4963211;28;20439;-92
2020/12/08 02:52:11;;;;;;;18.40;13.37;;;;;;;1.29;100.00;151698.38;4981952;28;20452;-92
2020/12/08 02:54:51;;;;;;;21.33;13.07;;;;;;;1.24;100.00;151688.06;4982242;28;20524;-93
2020/12/08 02:57:27;;;;;;;23.97;14.57;;;;;;;1.23;100.00;151684.22;4981951;28;20561;-93
2020/12/08 03:00:04;;;;;;;22.60;14.63;;;;;;;1.09;100.00;151649.53;4982185;28;20441;-93
2020/12/08 03:02:39;;;;;;;21.63;13.37;;;;;;;1.07;100.00;151643.13;4982206;28;20441;-93
2020/12/08 03:05:15;;;;;;;24.30;15.10;;;;;;;1.13;100.00;151658.53;4978962;28;20507;-93
2020/12/08 03:07:53;;;;;;;23.03;15.00;;;;;;;1.12;100.00;151657.25;4975065;28;20440;-93
2020/12/08 03:10:28;;;;;;;21.53;14.10;;;;;;;1.13;100.00;151659.84;4998513;28;20452;-93
2020/12/08 03:13:03;;;;;;;26.77;15.17;;;;;;;1.22;100.00;151682.94;4982572;28;20437;-93
2020/12/08 03:15:42;;;;;;;21.60;14.20;;;;;;;1.23;100.00;151685.53;4981784;28;20458;-93
2020/12/08 03:18:18;;;;;;;20.07;13.13;;;;;;;1.24;100.00;151686.81;4977829;28;20481;-93
2020/12/08 03:20:58;;;;;;;22.13;12.63;;;;;;;1.13;100.00;151659.84;4981928;28;20881;-93
2020/12/08 03:23:35;;;;;;;24.60;13.87;;;;;;;1.05;100.00;151639.28;4981887;28;20438;-93
2020/12/08 03:26:10;;;;;;;25.53;14.70;;;;;;;1.03;100.00;151634.09;4982354;28;20441;-93
2020/12/08 03:28:46;;;;;;;19.40;12.17;;;;;;;1.13;100.00;151658.53;5014400;28;20423;-93
2020/12/08 03:31:21;;;;;;;25.00;11.97;;;;;;;1.27;100.00;151694.53;4981978;28;20446;-92
2020/12/08 03:33:56;;;;;;;20.57;11.60;;;;;;;1.30;100.00;151702.19;4981905;28;20803;-92
2020/12/08 03:36:32;;;;;;;19.50;12.57;;;;;;;1.11;100.00;151654.66;4998833;28;20462;-93
2020/12/08 03:39:10;;;;;;;22.97;14.73;;;;;;;0.98;100.00;151621.28;4982308;28;20438;-92
2020/12/08 03:41:47;;;;;;;22.70;13.43;;;;;;;0.94;100.00;151611.03;4982628;28;20933;-93
2020/12/08 03:44:23;;;;;;;21.90;13.90;;;;;;;0.93;100.00;151608.44;4982749;28;20425;-92
2020/12/08 03:46:59;;;;;;;23.67;14.07;;;;;;;0.88;100.00;151595.59;4997668;28;20437;-92
2020/12/08 03:49:34;;;;;;;21.60;13.83;;;;;;;0.85;100.00;151587.88;4997663;28;20434;-93
2020/12/08 03:52:12;;;;;;;22.10;14.30;;;;;;;0.92;100.00;151605.91;4982370;28;20439;-92
2020/12/08 03:54:49;;;;;;;21.37;13.07;;;;;;;0.88;100.00;151594.31;4998883;28;20436;-92
2020/12/08 03:57:24;;;;;;;21.87;13.50;;;;;;;0.86;100.00;151590.47;4982376;28;20473;-92
2020/12/08 04:00:00;;;;;;;22.60;13.30;;;;;;;0.83;100.00;151582.75;5001439;28;20750;-92
2020/12/08 04:02:37;;;;;;;23.00;13.83;;;;;;;0.81;100.00;151576.34;5000646;28;20446;-92
2020/12/08 04:05:12;;;;;;;24.30;14.17;;;;;;;0.88;100.00;151594.31;5017751;28;20808;-92
2020/12/08 04:07:50;;;;;;;21.63;13.30;;;;;;;0.87;100.00;151591.75;4985788;28;20835;-92
2020/12/08 04:10:30;;;;;;;22.60;14.37;;;;;;;0.83;100.00;151581.47;4985544;28;20465;-92
2020/12/08 04:13:07;;;;;;;21.37;13.00;;;;;;;0.80;100.00;151573.75;4985431;28;20444;-92
2020/12/08 04:15:44;;;;;;;21.50;13.80;;;;;;;0.73;100.00;151557.09;4985605;28;20436;-92
2020/12/08 04:18:20;;;;;;;23.60;14.17;;;;;;;0.67;100.00;151541.66;4985303;28;20425;-92
2020/12/08 04:20:58;;;;;;;22.97;14.20;;;;;;;0.69;100.00;151545.53;4985683;28;20447;-92
2020/12/08 04:23:33;;;;;;;25.27;13.80;;;;;;;0.62;100.00;151528.81;5001526;28;20424;-92
2020/12/08 04:26:11;;;;;;;19.43;12.57;;;;;;;0.64;100.00;151533.94;4985044;28;20438;-91
2020/12/08 04:28:50;;;;;;;18.83;12.33;;;;;;;0.63;100.00;151531.41;5000831;28;20512;-92
2020/12/08 04:31:28;;;;;;;25.70;13.80;;;;;;;0.71;100.00;151551.97;5001753;28;20428;-92
2020/12/08 04:34:03;;;;;;;24.27;14.70;;;;;;;0.86;100.00;151589.19;4999670;28;20479;-91
2020/12/08 04:36:39;;;;;;;17.77;13.20;;;;;;;0.65;100.00;151535.25;5001012;28;20476;-92
2020/12/08 04:39:16;;;;;;;20.70;13.70;;;;;;;0.64;100.00;151533.94;5019854;28;20421;-92
2020/12/08 04:41:54;;;;;;;18.80;11.97;;;;;;;0.59;100.00;151522.41;5018922;28;20425;-92
2020/12/08 04:44:30;;;;;;;23.20;14.30;;;;;;;0.64;100.00;151533.94;5000688;28;20472;-91
2020/12/08 04:47:06;;;;;;;19.53;13.10;;;;;;;0.63;100.00;151530.13;5001564;28;20442;-91
2020/12/08 04:49:42;;;;;;;22.53;13.63;;;;;;;0.56;100.00;151514.69;5016852;28;20494;-92
2020/12/08 04:52:17;;;;;;;24.20;12.80;;;;;;;0.60;100.00;151523.72;5017310;28;20428;-92
2020/12/08 04:54:53;;;;;;;23.70;14.80;;;;;;;0.56;100.00;151513.41;5022538;28;20437;-91
2020/12/08 04:57:29;;;;;;;25.70;14.90;;;;;;;0.55;100.00;151510.88;5016439;28;20467;-92
2020/12/08 05:00:06;;;;;;;20.30;13.67;;;;;;;0.54;100.00;151509.59;5019166;28;20467;-91
2020/12/08 05:02:48;;;;;;;21.43;14.23;;;;;;;0.62;100.00;151528.81;5042482;28;20454;-92
2020/12/08 05:05:24;;;;;;;20.43;15.00;;;;;;;0.60;100.00;151523.72;5022273;28;20479;-92
2020/12/08 05:08:11;;;;;;;30.27;19.97;;;;;;;0.53;100.00;151505.75;5014369;28;20490;-92
2020/12/08 05:10:47;;;;;;;29.03;18.30;;;;;;;0.50;100.00;151498.03;5020118;28;20441;-91
2020/12/08 05:13:25;;;;;;;25.20;15.37;;;;;;;0.52;100.00;151503.16;5015069;28;20848;-93
2020/12/08 05:16:01;;;;;;;31.93;16.77;;;;;;;0.59;100.00;151522.41;5016865;28;20439;-92
2020/12/08 05:18:40;;;;;;;24.40;14.70;;;;;;;0.55;100.00;151512.16;5001188;28;20488;-93
2020/12/08 05:21:17;;;;;;;24.40;15.17;;;;;;;0.56;100.00;151514.69;5001592;28;20454;-93
2020/12/08 05:23:54;;;;;;;23.20;14.77;;;;;;;0.57;100.00;151517.28;5017508;28;20451;-93
2020/12/08 05:26:43;;;;;;;26.53;14.70;;;;;;;0.60;100.00;151525.00;5017269;28;20805;-92
2020/12/08 05:29:24;;;;;;;23.23;14.77;;;;;;;0.59;100.00;151521.13;4999417;28;20452;-92
2020/12/08 05:32:24;;;;;;;24.87;13.93;;;;;;;0.60;100.00;151525.00;5015416;28;20463;-93
2020/12/08 05:35:05;;;;;;;25.23;15.77;;;;;;;0.56;100.00;151513.41;5016475;28;20417;-93
2020/12/08 05:37:48;;;;;;;24.77;15.00;;;;;;;0.62;100.00;151528.81;4998308;28;20900;-93
2020/12/08 05:40:25;;;;;;;27.77;16.17;;;;;;;0.59;100.00;151521.13;5014872;28;20488;-93
2020/12/08 05:43:02;;;;;;;23.57;13.90;;;;;;;0.60;100.00;151523.72;5015893;28;20434;-93
2020/12/08 05:45:39;;;;;;;22.87;14.60;;;;;;;0.64;100.00;151533.94;4998603;28;20442;-92
2020/12/08 05:48:21;;;;;;;25.07;16.07;;;;;;;0.59;100.00;151522.41;5003843;28;20472;-92
2020/12/08 05:50:57;;;;;;;28.47;15.53;;;;;;;0.57;100.00;151516.00;5000371;28;20433;-92
2020/12/08 05:53:32;;;;;;;23.50;14.10;;;;;;;0.57;100.00;151516.00;5014262;28;20456;-93
2020/12/08 05:56:08;;;;;;;21.23;14.57;;;;;;;0.62;100.00;151528.81;5015588;28;20433;-92
2020/12/08 05:58:55;;;;;;;25.30;13.80;;;;;;;0.65;100.00;151536.53;5002336;28;20801;-92
2020/12/08 06:01:32;;;;;;;24.60;13.97;;;;;;;0.64;100.00;151533.94;5018906;28;20510;-91
2020/12/08 06:04:07;;;;;;;22.07;14.70;;;;;;;0.61;100.00;151527.53;5034340;28;20434;-92
2020/12/08 06:06:47;;;;;;;24.30;14.60;;;;;;;0.61;100.00;151527.53;5033743;28;20518;-93
2020/12/08 06:09:24;;;;;;;42.20;24.13;;;;;;;0.65;100.00;151536.53;5034994;28;20419;-93
2020/12/08 06:12:01;;;;;;;52.83;28.53;;;;;;;0.64;100.00;151532.72;5033773;28;20418;-92
2020/12/08 06:14:37;;;;;;;35.57;21.67;;;;;;;0.69;100.00;151545.53;5014909;28;20442;-93
2020/12/08 06:17:13;;;;;;;23.30;16.17;;;;;;;0.68;100.00;151544.25;5014036;28;20502;-93
2020/12/08 06:19:49;;;;;;;23.73;13.93;;;;;;;0.67;100.00;151540.38;4982996;28;20778;-93
2020/12/08 06:22:24;;;;;;;23.10;13.60;;;;;;;0.64;100.00;151532.72;4996921;28;20439;-93
2020/12/08 06:24:59;;;;;;;24.63;15.43;;;;;;;0.61;100.00;151526.25;4998599;28;20450;-93
2020/12/08 06:27:35;;;;;;;25.30;14.43;;;;;;;0.59;100.00;151521.13;5015160;28;20419;-93
2020/12/08 06:30:10;;;;;;;26.20;16.43;;;;;;;0.61;100.00;151526.25;5020905;28;20438;-93
2020/12/08 06:32:47;;;;;;;28.80;15.97;;;;;;;0.60;100.00;151523.72;5016934;28;20790;-93
2020/12/08 06:35:22;;;;;;;21.43;14.13;;;;;;;0.54;100.00;151508.28;5009619;28;20451;-92
2020/12/08 06:37:58;;;;;;;24.33;14.80;;;;;;;0.55;100.00;151512.16;5015101;28;20478;-94
2020/12/08 06:40:33;;;;;;;23.60;13.53;;;;;;;0.53;100.00;151505.75;5014935;28;20434;-92
2020/12/08 06:43:09;;;;;;;24.07;14.27;;;;;;;0.52;100.00;151503.16;4997960;28;20431;-92
2020/12/08 06:45:49;;;;;;;23.40;14.97;;;;;;;0.51;100.00;151500.56;4982315;28;20445;-93
2020/12/08 06:48:25;;;;;;;23.27;13.63;;;;;;;0.51;100.00;151501.88;5015180;28;20406;-92
2020/12/08 06:51:00;;;;;;;21.90;13.63;;;;;;;0.47;100.00;151491.63;5008655;28;21035;-93
2020/12/08 06:53:36;;;;;;;21.30;12.80;;;;;;;0.54;100.00;151508.28;5014785;28;20903;-93
2020/12/08 06:56:11;;;;;;;22.23;14.20;;;;;;;0.43;100.00;151481.31;5015101;28;20437;-92
2020/12/08 06:58:47;;;;;;;21.80;14.10;;;;;;;0.41;100.00;151474.91;4982054;28;20447;-92
2020/12/08 07:01:22;;;;;;;25.40;14.30;;;;;;;0.45;100.00;151486.44;5015178;28;20456;-92
2020/12/08 07:03:59;;;;;;;25.40;13.80;;;;;;;0.43;100.00;151481.31;5014610;28;20438;-92
2020/12/08 07:06:35;;;;;;;20.37;13.13;;;;;;;0.50;100.00;151498.03;5014441;28;20461;-92
2020/12/08 07:09:10;;;;;;;23.80;15.67;;;;;;;0.54;100.00;151508.28;4997129;28;20517;-91
2020/12/08 07:11:46;;;;;;;24.53;16.20;;;;;;;0.39;100.00;151469.78;4996989;28;20436;-91
2020/12/08 07:14:27;;;;;;;28.03;16.93;;;;;;;0.39;100.00;151471.09;5014242;28;20420;-90
2020/12/08 07:17:02;;;;;;;26.10;16.60;;;;;;;0.37;100.00;151464.66;5014277;28;20534;-90
2020/12/08 07:19:39;;;;;;;27.20;16.10;;;;;;;0.38;100.00;151467.19;5013504;28;20470;-90
2020/12/08 07:22:15;;;;;;;29.53;16.93;;;;;;;0.34;100.00;151458.25;5027673;28;20528;-90
2020/12/08 07:24:51;;;;;;;27.53;16.90;;;;;;;0.41;100.00;151474.91;4996742;28;20443;-90
2020/12/08 07:27:29;;;;;;;28.60;16.40;;;;;;;0.51;100.00;151501.88;4998563;28;20452;-90
2020/12/08 07:30:04;;;;;;;25.00;15.97;;;;;;;0.41;100.00;151476.22;5026577;28;20429;-90
2020/12/08 07:32:39;;;;;;;23.70;14.80;;;;;;;0.42;100.00;151477.50;4996440;28;20668;-91
2020/12/08 07:35:21;;;;;;;20.00;14.67;;;;;;;0.40;100.00;151472.31;5016222;28;20457;-93
2020/12/08 07:37:58;;;;;;;27.87;15.40;;;;;;;0.34;100.00;151458.25;5000122;28;20982;-93
2020/12/08 07:40:35;;;;;;;23.87;15.80;;;;;;;0.38;100.00;151467.19;4983140;28;20443;-92
2020/12/08 07:43:11;;;;;;;26.27;16.77;;;;;;;0.42;100.00;151477.50;5017457;28;20446;-91
2020/12/08 07:45:48;;;;;;;23.30;15.63;;;;;;;0.47;100.00;151490.34;4990964;28;20448;-91
2020/12/08 07:48:23;;;;;;;25.80;17.50;;;;;;;0.55;100.00;151510.88;5000447;28;20440;-92
2020/12/08 07:50:59;;;;;;;26.20;16.30;;;;;;;0.63;100.00;151531.41;5000283;28;20527;-90
2020/12/08 07:53:36;;;;;;;28.50;18.87;;;;;;;0.65;100.00;151536.53;5000150;28;20468;-88
2020/12/08 07:56:11;;;;;;;30.70;17.57;;;;;;;0.64;100.00;151532.72;5018235;28;20525;-91
2020/12/08 07:58:47;;;;;;;26.17;15.07;;;;;;;0.64;100.00;151533.94;5000054;28;20429;-91
2020/12/08 08:01:22;;;;;;;26.47;16.67;;;;;;;0.63;100.00;151531.41;5019594;28;20443;-83
2020/12/08 08:03:58;;;;;;;31.90;17.97;;;;;;;0.66;100.00;151539.13;5018983;28;20440;-89
2020/12/08 08:06:34;;;;;;;26.20;15.20;;;;;;;0.64;100.00;151533.94;5005013;28;20473;-89
2020/12/08 08:09:09;;;;;;;24.67;16.43;;;;;;;0.64;100.00;151533.94;4981184;28;20429;-89
2020/12/08 08:11:45;;;;;;;23.10;16.53;;;;;;;0.64;100.00;151532.72;4996502;28;20447;-89
2020/12/08 08:14:20;;;;;;;22.97;15.37;;;;;;;0.61;100.00;151527.53;4996272;28;20454;-89
2020/12/08 08:16:56;;;;;;;28.20;16.10;;;;;;;0.55;100.00;151510.88;4996698;28;20459;-89
2020/12/08 08:19:31;;;;;;;23.97;15.07;;;;;;;0.56;100.00;151513.41;4992214;28;20441;-89
2020/12/08 08:22:08;;;;;;;23.77;14.47;;;;;;;0.59;100.00;151522.41;4999757;28;20441;-89
2020/12/08 08:24:43;;;;;;;25.00;16.90;;;;;;;0.66;100.00;151539.13;4983883;28;20856;-88
2020/12/08 08:27:19;;;;;;;28.47;17.03;;;;;;;0.82;100.00;151580.16;5015537;28;20427;-88
2020/12/08 08:29:54;;;;;;;27.47;17.00;;;;;;;0.85;100.00;151587.88;4998764;28;20818;-88
2020/12/08 08:32:30;;;;;;;26.07;17.17;;;;;;;0.92;100.00;151605.91;5016359;28;20423;-88
2020/12/08 08:35:05;;;;;;;26.73;15.83;;;;;;;0.93;100.00;151608.44;4998863;28;20450;-88
2020/12/08 08:37:41;;;;;;;21.53;13.90;;;;;;;1.04;100.00;151636.69;4998505;28;20466;-88
2020/12/08 08:40:17;;;;;;;26.20;16.23;;;;;;;1.13;100.00;151659.84;5011885;28;20460;-88
2020/12/08 08:42:54;;;;;;;25.50;16.37;;;;;;;1.20;100.00;151677.81;4979727;28;20800;-89
2020/12/08 08:45:30;;;;;;;25.60;15.43;;;;;;;1.23;100.00;151684.22;4963174;28;20447;-89
2020/12/08 08:48:06;;;;;;;24.93;14.67;;;;;;;1.31;100.00;151703.50;4979318;28;20442;-90
2020/12/08 08:50:41;;;;;;;28.40;15.20;;;;;;;1.42;100.00;151731.75;4988201;28;20859;-90
2020/12/08 08:53:17;;;;;;;24.83;13.97;;;;;;;1.46;100.00;151743.31;5016187;28;20774;-91
2020/12/08 08:55:54;;;;;;;23.10;14.60;;;;;;;1.45;100.00;151740.78;4999014;28;20527;-91
2020/12/08 08:58:29;;;;;;;19.83;13.90;;;;;;;1.59;100.00;151775.47;5016229;28;20463;-91
2020/12/08 09:01:05;;;;;;;19.80;13.00;;;;;;;1.74;99.07;151814.00;5016485;28;20464;-91
2020/12/08 09:03:41;;;;;;;22.57;14.90;;;;;;;1.72;100.00;151808.88;4997729;28;20443;-91
2020/12/08 09:06:16;;;;;;;25.70;14.50;;;;;;;1.76;100.00;151820.44;4993359;28;20468;-91
2020/12/08 09:08:53;;;;;;;28.57;16.40;;;;;;;1.64;99.97;151789.56;5002232;28;20431;-91
2020/12/08 09:11:28;;;;;;;21.07;13.93;;;;;;;1.78;99.77;151824.25;4997548;28;20444;-89
2020/12/08 09:14:05;;;;;;;26.73;16.00;;;;;;;1.80;100.00;151829.44;5002342;28;20442;-91
2020/12/08 09:16:40;;;;;;;23.77;14.47;;;;;;;1.76;98.57;151820.44;4983066;28;20443;-91
2020/12/08 09:19:16;;;;;;;22.70;15.00;;;;;;;1.78;98.57;151824.25;4989286;28;20440;-91
2020/12/08 09:21:53;;;;;;;22.73;16.03;;;;;;;1.77;99.16;151822.97;4995983;28;20842;-90
2020/12/08 09:24:29;;;;;;;25.43;15.77;;;;;;;1.70;98.97;151803.69;4991686;28;20460;-90
2020/12/08 09:27:06;;;;;;;24.33;15.43;;;;;;;1.71;99.90;151807.59;4999295;28;20824;-91
2020/12/08 09:29:41;;;;;;;21.33;14.33;;;;;;;1.84;98.68;151841.00;5019045;28;20452;-91
2020/12/08 09:32:17;;;;;;;23.43;14.43;;;;;;;1.84;98.71;151841.00;4995143;28;20495;-91
2020/12/08 09:34:52;;;;;;;26.60;15.03;;;;;;;1.98;98.33;151875.72;4995148;28;20441;-91
2020/12/08 09:37:28;;;;;;;23.07;14.87;;;;;;;1.91;97.97;151856.44;4999622;28;20949;-91
2020/12/08 09:40:04;;;;;;;27.40;14.13;;;;;;;1.86;98.24;151844.84;4995642;28;20468;-91
2020/12/08 09:42:41;;;;;;;25.70;13.50;;;;;;;1.93;98.57;151861.56;4986619;28;20523;-91
2020/12/08 09:45:19;;;;;;;21.50;14.20;;;;;;;1.94;97.77;151865.41;4992916;28;20825;-91
2020/12/08 09:47:54;;;;;;;22.13;14.07;;;;;;;1.96;98.30;151869.28;4998122;28;20443;-92
2020/12/08 09:50:29;;;;;;;20.63;14.03;;;;;;;2.09;96.60;151902.72;4976361;28;20452;-90
2020/12/08 09:53:05;;;;;;;22.53;13.33;;;;;;;2.05;97.14;151893.69;5014539;28;20433;-92
2020/12/08 09:55:43;;;;;;;20.33;14.07;;;;;;;2.20;96.07;151932.25;5011583;28;20846;-91
2020/12/08 09:58:19;;;;;;;22.13;14.03;;;;;;;2.16;96.15;151920.69;5013402;28;20473;-91
2020/12/08 10:00:55;;;;;;;28.20;15.43;;;;;;;2.15;96.03;151919.41;5004650;28;20554;-91
2020/12/08 10:03:30;;;;;;;25.00;14.50;;;;;;;2.20;94.65;151932.25;4994056;28;20462;-91
2020/12/08 10:06:07;;;;;;;23.87;15.00;;;;;;;2.17;95.88;151924.53;4978804;28;20979;-91
2020/12/08 10:08:42;;;;;;;23.73;14.93;;;;;;;2.11;95.59;151907.84;4978179;28;20947;-91
2020/12/08 10:11:18;;;;;;;21.90;14.33;;;;;;;2.15;95.51;151918.09;4995392;28;20514;-91
2020/12/08 10:13:54;;;;;;;20.53;14.50;;;;;;;2.12;95.27;151911.69;4996665;28;20437;-91
2020/12/08 10:16:31;;;;;;;22.00;13.10;;;;;;;2.10;95.62;151906.53;5002874;28;20471;-91
2020/12/08 10:19:06;;;;;;;24.27;16.20;;;;;;;2.14;95.24;151916.84;5013061;28;20779;-90
2020/12/08 10:21:42;;;;;;;23.70;13.63;;;;;;;2.10;94.79;151906.53;5006319;28;20444;-91
2020/12/08 10:24:17;;;;;;;24.20;15.30;;;;;;;2.17;94.73;151924.53;5012809;28;20811;-91
2020/12/08 10:26:54;;;;;;;19.30;12.50;;;;;;;2.27;94.59;151948.97;5011324;28;20847;-89
2020/12/08 10:29:29;;;;;;;20.87;12.77;;;;;;;2.22;93.88;151937.44;4982153;28;20436;-89
2020/12/08 10:32:05;;;;;;;18.37;12.93;;;;;;;2.31;92.62;151960.53;4993930;28;20463;-89
2020/12/08 10:34:41;;;;;;;21.27;13.53;;;;;;;2.23;93.08;151938.66;5000059;28;20426;-89
2020/12/08 10:37:19;;;;;;;19.20;12.67;;;;;;;2.18;93.89;151927.13;5004130;28;20496;-89
2020/12/08 10:39:55;;;;;;;20.80;13.47;;;;;;;2.18;95.26;151927.13;4993423;28;20544;-89
2020/12/08 10:42:31;;;;;;;21.03;12.80;;;;;;;2.23;94.03;151939.97;5007370;28;20473;-89
2020/12/08 10:45:06;;;;;;;23.20;14.03;;;;;;;2.26;93.15;151947.69;4984088;28;20456;-89
2020/12/08 10:47:41;;;;;;;19.53;12.40;;;;;;;2.27;94.20;151950.28;5011835;28;20440;-90
2020/12/08 10:50:17;;;;;;;17.33;11.50;;;;;;;2.34;93.07;151966.97;5015265;28;20778;-90
2020/12/08 10:52:52;;;;;;;19.47;12.93;;;;;;;2.37;93.28;151976.00;4996075;28;20941;-89
2020/12/08 10:55:27;;;;;;;18.13;12.20;;;;;;;2.50;92.80;152006.84;4985260;28;20453;-89
2020/12/08 10:58:04;;;;;;;17.43;12.27;;;;;;;2.55;91.36;152019.69;5003788;28;20460;-90
2020/12/08 11:00:39;;;;;;;19.03;12.73;;;;;;;2.57;91.18;152024.88;4997266;28;21188;-90
2020/12/08 11:03:15;;;;;;;18.97;11.10;;;;;;;2.66;90.19;152048.00;4994036;28;20527;-89
2020/12/08 11:05:50;;;;;;;18.37;12.43;;;;;;;2.54;90.72;152017.16;5006023;28;20471;-90
2020/12/08 11:08:25;;;;;;;20.13;13.30;;;;;;;2.53;90.56;152015.84;4991978;28;20429;-89
2020/12/08 11:11:00;;;;;;;20.57;12.67;;;;;;;2.57;91.07;152026.13;4999893;28;20445;-89
2020/12/08 11:13:36;;;;;;;21.00;13.00;;;;;;;2.71;90.83;152062.16;5011350;28;20432;-89
2020/12/08 11:16:12;;;;;;;19.03;11.73;;;;;;;2.64;89.37;152042.84;5002051;28;20449;-89
2020/12/08 11:18:48;;;;;;;19.17;12.07;;;;;;;2.58;89.83;152028.72;5004932;28;20480;-89
2020/12/08 11:21:24;;;;;;;20.17;12.77;;;;;;;2.54;90.28;152017.16;4977794;28;20455;-89
2020/12/08 11:24:00;;;;;;;20.27;12.60;;;;;;;2.55;89.34;152019.69;5004538;28;20459;-89
2020/12/08 11:26:35;;;;;;;17.60;11.87;;;;;;;2.62;89.32;152037.72;4982814;28;20469;-89
2020/12/08 11:29:12;;;;;;;18.17;11.10;;;;;;;2.87;85.84;152102.00;5013348;28;20445;-89
2020/12/08 11:31:49;;;;;;;16.70;12.30;;;;;;;2.85;86.49;152096.88;4991300;28;20483;-89
2020/12/08 11:34:25;;;;;;;14.73;10.80;;;;;;;2.77;87.79;152076.28;4992230;28;20511;-89
2020/12/08 11:37:00;;;;;;;20.73;13.47;;;;;;;2.92;87.82;152114.88;4976475;28;20526;-89
2020/12/08 11:39:36;;;;;;;22.10;13.17;;;;;;;2.88;88.04;152104.59;4999746;28;20854;-89
2020/12/08 11:42:14;;;;;;;20.67;12.43;;;;;;;2.81;88.41;152087.84;4984307;28;20437;-89
2020/12/08 11:44:50;;;;;;;18.07;11.60;;;;;;;2.82;88.96;152089.16;5000936;28;21239;-89
2020/12/08 11:47:25;;;;;;;22.73;13.30;;;;;;;2.87;88.89;152103.31;4994487;28;20937;-89
2020/12/08 11:50:01;;;;;;;25.70;14.33;;;;;;;2.89;89.19;152107.16;5011809;28;20512;-89
2020/12/08 11:52:36;;;;;;;21.90;13.60;;;;;;;2.87;89.75;152102.00;5005337;28;20444;-89
2020/12/08 11:55:12;;;;;;;21.40;13.90;;;;;;;2.87;89.95;152102.00;4980585;28;20444;-89